• Join FlightAware (Why Join?)
  • Login
  • US Flag 
01:04PM EDT


 

Airport Tracker/Info


-or-


 

Live Flight TrackerFlight Track Log ✈ DAL6091 ✈ 04-Oct-2013 ✈ KIAD - KDTW

Flight Track Log - Related Links

Times and Time Zones

All times are in EDT time to prevent confusion due to time zone crossing. See the DAL6091 flight status page for this flight to view local times or setup timezone preferences in your user account.

Time Position Orientation Groundspeed Altitude Reporting Facility
EDT Latitude Longitude Course Direction KTS MPH feet Rate Location/Type
05:23PM 38.9667 -77.4500 290° West 163 188 1,700  Level Potomac TRACON
05:25PM 39.0875 -77.5358 331° Northwest 205 236 6,900 2,160 Climbing Washington Center
05:26PM 39.1881 -77.8586 297° West  Level Estimated
05:26PM 39.1389 -77.5719 331° Northwest 205 236 9,200  Level Washington Center
05:27PM 39.2481 -77.9586 288° West  Level Estimated
05:27PM 39.1944 -77.6108 332° Northwest 205 236 10,800  Level Washington Center
05:28PM 39.3080 -78.0589 290° West  Level Estimated
05:28PM 39.2606 -77.6583 331° Northwest 232 267 12,100  Level Washington Center
05:29PM 39.3306 -77.7086 331° Northwest 267 307 13,500 1,440 Climbing Washington Center
05:30PM 39.4044 -77.7644 330° Northwest 290 334 15,000 1,380 Climbing Washington Center
05:31PM 39.4825 -77.8206 331° Northwest 302 348 16,300 1,320 Climbing Washington Center
05:33PM 39.5819 -78.0111 304° West 324 373 19,100 1,440 Climbing Cleveland Center
05:34PM 39.6128 -78.1172 291° West 317 365 20,700 1,500 Climbing Cleveland Center
05:35PM 39.6444 -78.2219 291° West 315 362 22,200 1,260 Climbing Cleveland Center
05:37PM 39.6753 -78.3281 291° West 315 362 23,400 1,020 Climbing Cleveland Center
05:38PM 39.7083 -78.4369 292° West 326 375 24,400 960 Climbing Cleveland Center
05:39PM 39.7406 -78.5497 290° West 334 384 25,500 1,260 Climbing Cleveland Center
05:40PM 39.7797 -78.6817 291° West 334 384 27,100 1,200 Climbing Cleveland Center
05:41PM 39.8133 -78.7978 291° West 327 376 28,000 420 Climbing Cleveland Center
05:42PM 39.8464 -78.9125 291° West 348 400 28,000  Level Cleveland Center
05:43PM 39.8786 -79.0208 291° West 342 394 28,000  Level Cleveland Center
05:44PM 39.9117 -79.1350 291° West 338 389 28,000  Level Cleveland Center
05:45PM 39.9500 -79.2683 291° West 331 381 28,000  Level Cleveland Center
05:46PM 39.9842 -79.3789 292° West 333 383 28,000  Level Cleveland Center
05:47PM 40.0372 -79.4758 306° West 339 390 28,000  Level Cleveland Center
05:48PM 40.0858 -79.5731 303° West 329 379 28,000  Level Cleveland Center
05:49PM 40.1367 -79.6739 303° West 332 382 28,000  Level Cleveland Center
05:50PM 40.1889 -79.7739 304° West 333 383 28,000  Level Cleveland Center
05:51PM 40.2486 -79.8925 303° West 328 377 28,000  Level Cleveland Center
05:52PM 40.2978 -79.9892 304° West 321 369 28,000  Level Cleveland Center
05:53PM 40.3472 -80.0883 303° West 317 365 28,000  Level Cleveland Center
05:54PM 40.3964 -80.1844 304° West 318 366 28,000  Level Cleveland Center
05:55PM 40.4458 -80.2825 304° West 323 372 28,000  Level Cleveland Center
05:56PM 40.4997 -80.3903 303° West 328 377 28,000  Level Cleveland Center
05:57PM 40.5508 -80.4922 303° West 334 384 28,000  Level Cleveland Center
05:58PM 40.6025 -80.5964 303° West 335 386 28,000  Level Cleveland Center
05:59PM 40.6619 -80.7167 303° West 332 382 28,000  Level Cleveland Center
06:00PM 40.7111 -80.8169 303° West 328 377 28,000  Level Cleveland Center
06:01PM 40.7594 -80.9169 303° West 325 374 28,000  Level Cleveland Center
06:02PM 40.8092 -81.0158 304° West 324 373 28,000  Level Cleveland Center
06:03PM 40.8594 -81.1214 302° West 327 376 28,000  Level Cleveland Center
06:04PM 40.9089 -81.2236 303° West 328 377 28,000  Level Cleveland Center
06:05PM 40.9600 -81.3283 303° West 334 384 28,000 -300 Level Cleveland Center
06:07PM 41.0178 -81.4497 302° West 333 383 27,400 -1,140 Descending Cleveland Center
06:08PM 41.0658 -81.5497 303° West 321 369 25,700 -1,680 Descending Cleveland Center
06:09PM 41.1136 -81.6483 303° West 314 361 24,000 -840 Descending Cleveland Center
06:10PM 41.1558 -81.7369 302° West 310 357 24,000  Level Cleveland Center
06:11PM 41.2072 -81.8456 302° West 346 398 24,000  Level Cleveland Center
06:12PM 41.2694 -81.9761 302° West 348 400 24,000  Level Cleveland Center
06:13PM 41.3206 -82.0831 302° West 345 397 24,000  Level Cleveland Center
06:14PM 41.3714 -82.1864 303° West 344 396 24,000 -540 Level Cleveland Center
06:15PM 41.4303 -82.2800 310° West 330 380 22,900 -1,740 Descending Cleveland Center
06:16PM 41.4844 -82.3717 308° West 314 361 20,500 -2,460 Descending Cleveland Center
06:17PM 41.5483 -82.4794 308° West 313 360 17,900 -2,340 Descending Cleveland Center
06:17PM 41.5681 -82.5136 308° West 307 353 17,300 -1,860 Descending Cleveland Center
06:18PM 41.6017 -82.5672 310° West 304 350 16,000 -1,980 Descending Cleveland Center
06:18PM 41.6056 -82.5742 307° West 303 349 15,900 -2,340 Descending Cleveland Center
06:19PM 41.6486 -82.6481 308° West 302 348 13,600 -2,460 Descending Cleveland Center
06:19PM 41.6558 -82.6617 305° West 303 349 13,400 -1,680 Descending Cleveland Center
06:20PM 41.7044 -82.7433 309° West 306 352 12,000 -1,320 Descending Cleveland Center
06:20PM 41.7022 -82.7375 117° Southeast 306 352 12,100  Climbing Cleveland Center
06:21PM 41.7700 -82.8314 314° West 290 334 12,000 -120 Descending Cleveland Center
06:21PM 41.7711 -82.8331 312° West 291 335 12,000  Level Cleveland Center
06:22PM 41.8292 -82.9025 318° Northwest 288 331 12,000  Level Cleveland Center
06:22PM 41.8306 -82.9056 301° West 291 335 12,000  Level Cleveland Center
06:23PM 41.8931 -82.9786 319° Northwest 304 350 12,000  Level Cleveland Center
06:23PM 41.9036 -82.9936 313° West 307 353 12,000  Level Cleveland Center
06:24PM 41.9550 -83.0533 319° Northwest 299 344 12,000  Level Cleveland Center
06:25PM 42.0208 -83.1331 318° Northwest 292 336 12,000  Level Cleveland Center
06:25PM 42.0153 -83.1264 138° Southeast 294 338 12,000  Level Cleveland Center
06:26PM 42.0753 -83.1983 318° Northwest 292 336 12,000 -120 Level Cleveland Center
06:26PM 42.0928 -83.2078 338° Northwest 280 322 11,900 -960 Descending Cleveland Center
06:27PM 42.1489 -83.2381 338° Northwest 227 261 11,100 -840 Descending Cleveland Center
06:27PM 42.1481 -83.2386 206° Southwest 243 280 11,100 -1,560 Level Cleveland Center
06:28PM 42.2064 -83.2011 25° Northeast 228 262 9,400 -1,620 Descending Cleveland Center
06:29PM 42.2617 -83.1633 27° Northeast 231 266 8,000 -1,380 Descending Cleveland Center
06:29PM 42.2625 -83.1617 56° Northeast 232 267 8,000  Level Cleveland Center
06:30PM 42.3125 -83.1281 26° Northeast 222 255 8,000  Level Cleveland Center
06:30PM 42.3164 -83.1233 42° Northeast 225 259 8,000  Level Cleveland Center
06:31PM 42.3722 -83.0856 27° Northeast 232 267 8,000  Level Cleveland Center
06:31PM 42.3822 -83.0764 34° Northeast 223 257 8,000  Level Cleveland Center
06:32PM 42.4211 -83.0497 27° Northeast 182 209 8,000  Level Cleveland Center
06:32PM 42.4317 -83.0392 36° Northeast 212 244 8,000  Level Cleveland Center
06:33PM 42.4719 -83.0142 25° Northeast 203 234 8,000  Level Cleveland Center
06:33PM 42.4806 -83.0039 41° Northeast 202 232 8,000  Level Cleveland Center
06:34PM 42.5183 -83.0092 354° North 185 213 8,000  Level Cleveland Center
06:34PM 42.5208 -83.0164 295° West 198 228 8,000 -720 Level Cleveland Center
06:35PM 42.5367 -83.0711 291° West 175 201 7,300 -780 Descending Cleveland Center
06:35PM 42.5314 -83.0781 224° Southwest 183 211 7,200 -540 Descending Cleveland Center
06:36PM 42.4994 -83.1200 224° Southwest 187 215 6,800 -540 Descending Cleveland Center
06:37PM 42.4947 -83.1244 215° Southwest 186 214 6,700 -900 Descending Cleveland Center
06:37PM 42.4611 -83.1569 216° Southwest 183 211 6,000 -1,080 Descending Cleveland Center
06:38PM 42.4431 -83.1669 202° Southwest 185 213 5,600 -1,080 Descending Cleveland Center
06:38PM 42.4103 -83.1925 210° Southwest 181 208 4,800 -960 Descending Cleveland Center
06:39PM 42.3989 -83.1997 205° Southwest 180 207 4,600 -900 Descending Cleveland Center
06:39PM 42.3725 -83.2211 211° Southwest 171 197 4,000 -900 Descending Cleveland Center
06:40PM 42.3567 -83.2306 204° Southwest 175 201 3,700 -900 Descending Cleveland Center
06:40PM 42.3281 -83.2544 212° Southwest 180 207 3,100 -1,020 Descending Cleveland Center
06:41PM 42.3131 -83.2631 203° Southwest 176 203 2,700 -900 Descending Cleveland Center
06:41PM 42.2878 -83.2856 213° Southwest 138 159 2,200 -780 Descending Cleveland Center
06:42PM 42.2758 -83.2917 201° Southwest 162 186 1,900 -840 Descending Cleveland Center
06:42PM 42.2525 -83.3089 209° Southwest 137 158 1,400 -720 Descending Cleveland Center
06:43PM 42.2428 -83.3167 211° Southwest 144 166 1,200 -360 Descending Cleveland Center
06:44PM 42.2033 -83.3447 208° Southwest 141 162 900 -300 Descending Cleveland Center